createdAt,value
2023-03-20T00:00:24.976Z,8.30
2023-03-20T00:02:51.547Z,8.20
2023-03-20T00:05:20.141Z,8.20
2023-03-20T00:07:47.767Z,9.30
2023-03-20T00:10:14.502Z,8.30
2023-03-20T00:12:41.615Z,8.20
2023-03-20T00:15:14.912Z,10.10
2023-03-20T00:17:41.573Z,8.20
2023-03-20T00:20:14.757Z,8.30
2023-03-20T00:22:41.367Z,8.20
2023-03-20T00:25:09.976Z,8.20
2023-03-20T00:27:36.613Z,8.10
2023-03-20T00:30:04.503Z,10.40
2023-03-20T00:32:31.150Z,8.10
2023-03-20T00:34:57.805Z,8.10
2023-03-20T00:37:24.448Z,8.10
2023-03-20T00:39:51.478Z,8.00
2023-03-20T00:42:21.727Z,8.10
2023-03-20T00:44:54.156Z,8.10
2023-03-20T00:47:24.703Z,8.10
2023-03-20T00:49:52.592Z,8.10
2023-03-20T00:52:20.052Z,8.20
2023-03-20T00:54:46.690Z,8.20
2023-03-20T00:57:17.972Z,8.10
2023-03-20T00:59:53.757Z,7.90
2023-03-20T01:02:21.930Z,7.80
2023-03-20T01:04:49.002Z,7.80
2023-03-20T01:07:16.557Z,7.80
2023-03-20T01:09:43.273Z,7.70
2023-03-20T01:12:13.561Z,9.70
2023-03-20T01:14:40.735Z,7.50
2023-03-20T01:17:17.186Z,8.90
2023-03-20T01:19:43.916Z,9.80
2023-03-20T01:22:10.654Z,7.40
2023-03-20T01:24:39.679Z,8.80
2023-03-20T01:27:14.706Z,10.60
2023-03-20T01:29:42.363Z,7.30
2023-03-20T01:32:13.342Z,7.20
2023-03-20T01:34:40.012Z,7.20
2023-03-20T01:37:11.671Z,9.70
2023-03-20T01:39:38.516Z,10.10
2023-03-20T01:42:05.982Z,7.20
2023-03-20T01:44:33.842Z,7.10
2023-03-20T01:47:01.390Z,7.10
2023-03-20T01:49:28.733Z,7.10
2023-03-20T01:51:59.043Z,7.50
2023-03-20T01:54:38.402Z,7.00
2023-03-20T01:57:20.626Z,7.00
2023-03-20T01:59:49.167Z,7.10
2023-03-20T02:02:17.367Z,7.20
2023-03-20T02:04:46.546Z,7.20
2023-03-20T02:07:16.633Z,8.70
2023-03-20T02:09:43.284Z,7.20
2023-03-20T02:12:10.999Z,7.30
2023-03-20T02:14:38.077Z,7.30
2023-03-20T02:17:06.139Z,7.30
2023-03-20T02:19:51.702Z,7.50
2023-03-20T02:22:28.861Z,7.30
2023-03-20T02:25:15.886Z,7.30
2023-03-20T02:27:48.733Z,7.30
2023-03-20T02:30:18.258Z,9.80
2023-03-20T02:32:55.370Z,7.30
2023-03-20T02:35:31.584Z,8.20
2023-03-20T02:38:01.331Z,7.30
2023-03-20T02:40:28.263Z,7.20
2023-03-20T02:42:54.872Z,7.30
2023-03-20T02:45:43.151Z,7.20
2023-03-20T02:48:15.646Z,7.20
2023-03-20T02:50:51.493Z,7.10
2023-03-20T02:53:28.949Z,7.10
2023-03-20T02:56:06.170Z,7.10
2023-03-20T02:58:32.945Z,7.00
2023-03-20T03:01:03.655Z,7.00
2023-03-20T03:03:35.500Z,6.90
2023-03-20T03:06:07.344Z,7.90
2023-03-20T03:08:37.848Z,7.00
2023-03-20T03:11:06.562Z,9.40
2023-03-20T03:13:36.018Z,6.90
2023-03-20T03:16:20.787Z,8.80
2023-03-20T03:18:49.972Z,6.80
2023-03-20T03:21:17.984Z,6.80
2023-03-20T03:23:48.775Z,6.80
2023-03-20T03:26:19.822Z,6.80
2023-03-20T03:28:48.904Z,6.90
2023-03-20T03:31:17.887Z,7.00
2023-03-20T03:33:46.999Z,7.10
2023-03-20T03:36:22.892Z,9.10
2023-03-20T03:38:49.549Z,7.20
2023-03-20T03:41:16.228Z,7.30
2023-03-20T03:43:45.997Z,8.80
2023-03-20T03:46:18.413Z,7.30
2023-03-20T03:48:48.836Z,8.30
2023-03-20T03:51:17.876Z,7.40
2023-03-20T03:53:49.133Z,7.40
2023-03-20T03:56:17.348Z,7.50
2023-03-20T03:58:46.603Z,7.50
2023-03-20T04:01:14.457Z,7.40
2023-03-20T04:03:47.630Z,7.50
2023-03-20T04:06:15.976Z,7.50
2023-03-20T04:08:43.413Z,7.50
2023-03-20T04:11:17.250Z,7.50
2023-03-20T04:13:44.883Z,7.50
2023-03-20T04:16:14.713Z,7.60
2023-03-20T04:18:41.661Z,7.60
2023-03-20T04:21:08.574Z,7.60
2023-03-20T04:23:35.697Z,7.60
2023-03-20T04:26:02.857Z,7.60
2023-03-20T04:28:29.624Z,7.60
2023-03-20T04:30:57.317Z,7.50
2023-03-20T04:33:24.634Z,7.60
2023-03-20T04:35:51.793Z,7.50
2023-03-20T04:38:19.220Z,7.50
2023-03-20T04:40:46.757Z,7.40
2023-03-20T04:43:14.146Z,7.40
2023-03-20T04:45:41.467Z,7.40
2023-03-20T04:48:08.322Z,7.40
2023-03-20T04:50:34.998Z,7.40
2023-03-20T04:53:01.848Z,7.50
2023-03-20T04:55:28.541Z,7.50
2023-03-20T04:57:55.381Z,10.40
2023-03-20T05:00:22.273Z,7.60
2023-03-20T05:02:48.972Z,7.60
2023-03-20T05:05:15.622Z,7.50
2023-03-20T05:07:42.389Z,7.60
2023-03-20T05:10:09.331Z,7.70
2023-03-20T05:12:35.995Z,7.70
2023-03-20T05:15:02.759Z,7.80
2023-03-20T05:17:29.502Z,7.80
2023-03-20T05:19:57.580Z,7.80
2023-03-20T05:22:24.261Z,9.60
2023-03-20T05:24:51.040Z,7.70
2023-03-20T05:27:17.910Z,7.80
2023-03-20T05:29:45.027Z,7.70
2023-03-20T05:32:12.920Z,7.80
2023-03-20T05:34:39.616Z,7.70
2023-03-20T05:37:06.255Z,7.80
2023-03-20T05:39:33.050Z,7.70
2023-03-20T05:41:59.729Z,7.70
2023-03-20T05:44:26.536Z,7.70
2023-03-20T05:46:53.207Z,7.70
2023-03-20T05:49:19.891Z,7.80
2023-03-20T05:51:46.789Z,10.20
2023-03-20T05:54:13.533Z,9.20
2023-03-20T05:56:40.329Z,7.80
2023-03-20T05:59:07.032Z,7.80
2023-03-20T06:01:33.846Z,7.80
2023-03-20T06:04:00.566Z,7.90
2023-03-20T06:06:27.247Z,7.90
2023-03-20T06:08:53.882Z,7.90
2023-03-20T06:11:21.186Z,7.90
2023-03-20T06:13:48.092Z,10.10
2023-03-20T06:16:14.755Z,8.00
2023-03-20T06:18:41.906Z,7.90
2023-03-20T06:21:09.453Z,7.90
2023-03-20T06:23:36.492Z,8.00
2023-03-20T06:26:03.233Z,8.00
2023-03-20T06:28:30.359Z,8.00
2023-03-20T06:30:57.290Z,8.10
2023-03-20T06:33:24.097Z,8.20
2023-03-20T06:35:50.764Z,8.30
2023-03-20T06:38:17.707Z,8.30
2023-03-20T06:40:45.281Z,10.40
2023-03-20T06:43:12.504Z,8.40
2023-03-20T06:45:39.388Z,8.40
2023-03-20T06:48:06.932Z,8.70
2023-03-20T06:50:33.575Z,11.20
2023-03-20T06:53:03.774Z,8.60
2023-03-20T06:55:31.232Z,9.90
2023-03-20T06:57:58.117Z,10.00
2023-03-20T07:00:24.933Z,10.30
2023-03-20T07:02:51.650Z,8.80
2023-03-20T07:05:18.386Z,8.90
2023-03-20T07:07:45.059Z,9.00
2023-03-20T07:10:12.667Z,10.70
2023-03-20T07:12:39.449Z,9.10
2023-03-20T07:15:06.726Z,9.30
2023-03-20T07:17:33.373Z,9.30
2023-03-20T07:19:59.935Z,9.40
2023-03-20T07:22:27.603Z,11.30
2023-03-20T07:24:54.334Z,9.40
2023-03-20T07:27:23.998Z,10.60
2023-03-20T07:29:50.659Z,9.30
2023-03-20T07:32:19.095Z,12.40
2023-03-20T07:34:46.644Z,9.10
2023-03-20T07:37:13.302Z,9.10
2023-03-20T07:39:39.874Z,11.70
2023-03-20T07:42:06.900Z,9.20
2023-03-20T07:44:33.616Z,9.30
2023-03-20T07:47:00.349Z,9.30
2023-03-20T07:49:27.225Z,9.40
2023-03-20T07:51:57.212Z,9.50
2023-03-20T07:54:23.892Z,9.50
2023-03-20T07:56:50.939Z,9.50
2023-03-20T07:59:17.845Z,9.60
2023-03-20T08:01:44.628Z,9.60
2023-03-20T08:04:11.643Z,9.60
2023-03-20T08:06:41.648Z,10.90
2023-03-20T08:09:08.521Z,11.10
2023-03-20T08:11:35.180Z,9.80
2023-03-20T08:14:04.644Z,9.80
2023-03-20T08:16:31.500Z,9.90
2023-03-20T08:19:01.413Z,12.10
2023-03-20T08:21:28.738Z,9.90
2023-03-20T08:23:55.983Z,9.90
2023-03-20T08:26:23.024Z,9.80
2023-03-20T08:28:50.919Z,11.40
2023-03-20T08:31:18.095Z,9.90
2023-03-20T08:33:45.873Z,9.90
2023-03-20T08:36:13.810Z,10.00
2023-03-20T08:38:40.580Z,10.60
2023-03-20T08:41:07.844Z,10.10
2023-03-20T08:43:34.693Z,10.20
2023-03-20T08:46:01.518Z,10.30
2023-03-20T08:48:28.192Z,12.70
2023-03-20T08:50:54.837Z,10.50
2023-03-20T08:53:22.267Z,10.60
2023-03-20T08:55:50.137Z,11.50
2023-03-20T08:58:17.119Z,10.90
2023-03-20T09:00:44.013Z,10.90
2023-03-20T09:03:17.651Z,11.00
2023-03-20T09:05:44.823Z,11.10
2023-03-20T09:08:11.430Z,11.20
2023-03-20T09:10:38.073Z,11.30
2023-03-20T09:13:19.508Z,9.30
2023-03-20T09:15:52.020Z,12.50
2023-03-20T09:18:19.161Z,11.50
2023-03-20T09:20:46.951Z,11.50
2023-03-20T09:23:13.592Z,11.40
2023-03-20T09:25:40.547Z,11.40
2023-03-20T09:28:13.111Z,11.30
2023-03-20T09:30:40.577Z,11.40
2023-03-20T09:33:07.342Z,11.30
2023-03-20T09:35:34.072Z,13.30
2023-03-20T09:38:00.770Z,11.40
2023-03-20T09:40:30.859Z,12.60
2023-03-20T09:43:07.122Z,11.50
2023-03-20T09:45:33.850Z,11.50
2023-03-20T09:48:19.012Z,11.70
2023-03-20T09:50:48.609Z,11.80
2023-03-20T09:53:22.755Z,11.90
2023-03-20T09:55:50.362Z,11.80
2023-03-20T09:58:21.085Z,12.00
2023-03-20T10:00:48.078Z,13.20
2023-03-20T10:03:19.784Z,12.00
2023-03-20T10:05:49.053Z,11.90
2023-03-20T10:08:19.101Z,12.00
2023-03-20T10:10:54.786Z,12.10
2023-03-20T10:13:35.401Z,12.10
2023-03-20T10:16:05.130Z,12.30
2023-03-20T10:18:35.334Z,12.30
2023-03-20T10:21:07.545Z,12.50
2023-03-20T10:23:53.110Z,12.40
2023-03-20T10:26:21.685Z,12.30
2023-03-20T10:28:51.927Z,12.20
2023-03-20T10:31:39.760Z,13.10
2023-03-20T10:34:23.122Z,12.00
2023-03-20T10:36:55.982Z,12.10
2023-03-20T10:39:29.963Z,12.00
2023-03-20T10:41:58.789Z,13.40
2023-03-20T10:44:28.136Z,15.20
2023-03-20T10:46:56.758Z,12.20
2023-03-20T10:49:42.311Z,13.40
2023-03-20T10:52:14.908Z,12.60
2023-03-20T10:54:50.006Z,12.70
2023-03-20T10:57:27.613Z,12.80
2023-03-20T10:59:57.776Z,12.90
2023-03-20T11:02:33.580Z,13.00
2023-03-20T11:05:01.927Z,16.10
2023-03-20T11:07:31.582Z,13.30
2023-03-20T11:10:04.904Z,13.90
2023-03-20T11:12:35.934Z,13.30
2023-03-20T11:15:04.420Z,13.30
2023-03-20T11:17:31.093Z,15.10
2023-03-20T11:20:03.202Z,15.30
2023-03-20T11:22:30.091Z,15.30
2023-03-20T11:25:03.179Z,14.90
2023-03-20T11:27:31.081Z,13.20
2023-03-20T11:29:58.516Z,13.30
2023-03-20T11:32:32.938Z,13.70
2023-03-20T11:35:17.930Z,13.10
2023-03-20T11:37:46.598Z,13.10
2023-03-20T11:40:22.644Z,13.10
2023-03-20T11:42:56.561Z,12.90
2023-03-20T11:45:23.730Z,12.90
2023-03-20T11:47:51.783Z,14.00
2023-03-20T11:50:38.313Z,13.60
2023-03-20T11:53:21.369Z,13.00
2023-03-20T11:56:06.138Z,12.90
2023-03-20T11:58:33.650Z,12.90
2023-03-20T12:01:01.572Z,12.90
2023-03-20T12:03:41.841Z,14.50
2023-03-20T12:06:13.664Z,13.00
2023-03-20T12:08:41.550Z,13.00
2023-03-20T12:11:31.443Z,15.30
2023-03-20T12:13:59.366Z,13.10
2023-03-20T12:16:27.669Z,14.60
2023-03-20T12:19:00.171Z,14.30
2023-03-20T12:21:27.063Z,13.30
2023-03-20T12:23:58.254Z,13.40
2023-03-20T12:26:30.883Z,15.30
2023-03-20T12:29:16.995Z,13.40
2023-03-20T12:31:50.849Z,13.40
2023-03-20T12:34:32.221Z,13.40
2023-03-20T12:36:58.925Z,13.50
2023-03-20T12:39:34.374Z,13.50
2023-03-20T12:42:27.691Z,14.60
2023-03-20T12:45:01.276Z,13.50
2023-03-20T12:47:33.124Z,13.60
2023-03-20T12:50:24.951Z,13.70
2023-03-20T12:53:00.757Z,13.70
2023-03-20T12:55:46.334Z,13.70
2023-03-20T12:58:15.989Z,13.50
2023-03-20T13:00:49.665Z,13.40
2023-03-20T13:03:23.278Z,13.50
2023-03-20T13:05:57.510Z,15.20
2023-03-20T13:08:37.205Z,13.60
2023-03-20T13:11:36.884Z,13.60
2023-03-20T13:14:11.814Z,13.50
2023-03-20T13:16:41.634Z,13.50
2023-03-20T13:19:28.544Z,13.50
2023-03-20T13:22:06.995Z,13.50
2023-03-20T13:24:40.981Z,13.50
2023-03-20T13:27:13.585Z,13.60
2023-03-20T13:29:46.276Z,14.60
2023-03-20T13:32:27.413Z,13.90
2023-03-20T13:35:05.271Z,13.90
2023-03-20T13:37:41.114Z,13.80
2023-03-20T13:40:20.327Z,13.80
2023-03-20T13:42:57.767Z,13.70
2023-03-20T13:45:36.553Z,13.60
2023-03-20T13:48:12.287Z,13.60
2023-03-20T13:50:45.348Z,13.60
2023-03-20T13:53:21.886Z,13.70
2023-03-20T13:55:52.415Z,13.70
2023-03-20T13:58:18.990Z,13.70
2023-03-20T14:01:08.901Z,13.60
2023-03-20T14:03:37.017Z,13.60
2023-03-20T14:06:19.056Z,13.70
2023-03-20T14:08:52.682Z,13.80
2023-03-20T14:11:23.942Z,13.80
2023-03-20T14:13:50.630Z,13.80
2023-03-20T14:16:18.572Z,13.80
2023-03-20T14:18:52.202Z,15.20
2023-03-20T14:21:21.057Z,13.60
2023-03-20T14:23:51.520Z,15.10
2023-03-20T14:26:18.303Z,13.60
2023-03-20T14:28:52.203Z,13.70
2023-03-20T14:31:23.217Z,14.80
2023-03-20T14:34:13.090Z,13.50
2023-03-20T14:36:51.190Z,13.40
2023-03-20T14:39:23.808Z,13.40
2023-03-20T14:41:56.439Z,13.40
2023-03-20T14:44:23.077Z,13.40
2023-03-20T14:47:02.492Z,13.40
2023-03-20T14:49:38.189Z,13.70
2023-03-20T14:52:29.920Z,13.20
2023-03-20T14:54:56.541Z,13.10
2023-03-20T14:57:35.733Z,14.10
2023-03-20T15:00:17.297Z,13.00
2023-03-20T15:02:46.337Z,12.90
2023-03-20T15:05:29.322Z,15.10
2023-03-20T15:07:57.997Z,12.80
2023-03-20T15:10:25.306Z,14.90
2023-03-20T15:12:52.177Z,12.80
2023-03-20T15:15:28.849Z,14.40
2023-03-20T15:17:55.718Z,12.70
2023-03-20T15:20:23.926Z,13.20
2023-03-20T15:22:57.644Z,12.60
2023-03-20T15:25:27.993Z,12.60
2023-03-20T15:27:55.173Z,12.60
2023-03-20T15:30:22.429Z,13.40
2023-03-20T15:32:49.902Z,14.50
2023-03-20T15:35:17.676Z,13.50
2023-03-20T15:37:45.844Z,12.70
2023-03-20T15:40:14.108Z,15.70
2023-03-20T15:42:40.794Z,12.60
2023-03-20T15:45:13.818Z,12.60
2023-03-20T15:47:42.346Z,12.50
2023-03-20T15:50:12.586Z,13.60
2023-03-20T15:52:39.244Z,14.10
2023-03-20T15:55:07.480Z,12.40
2023-03-20T15:57:36.151Z,12.50
2023-03-20T16:00:29.490Z,12.40
2023-03-20T16:05:26.119Z,12.30
2023-03-20T16:07:52.774Z,14.30
2023-03-20T16:10:29.258Z,15.20
2023-03-20T16:12:56.200Z,12.20
2023-03-20T16:15:27.882Z,15.10
2023-03-20T16:17:56.037Z,12.20
2023-03-20T16:20:23.883Z,15.10
2023-03-20T16:22:52.276Z,15.10
2023-03-20T16:25:19.173Z,13.70
2023-03-20T16:27:49.286Z,14.20
2023-03-20T16:30:17.680Z,14.80
2023-03-20T16:32:47.280Z,11.60
2023-03-20T16:35:17.339Z,13.10
2023-03-20T16:37:48.766Z,14.10
2023-03-20T16:40:20.386Z,11.60
2023-03-20T16:42:46.977Z,11.50
2023-03-20T16:45:23.240Z,13.40
2023-03-20T16:47:49.882Z,11.40
2023-03-20T16:50:17.970Z,11.70
2023-03-20T16:52:46.274Z,11.50
2023-03-20T16:55:17.956Z,12.50
2023-03-20T16:57:46.572Z,10.80
2023-03-20T17:00:21.170Z,10.80
2023-03-20T17:02:52.683Z,10.60
2023-03-20T17:05:20.509Z,10.50
2023-03-20T17:07:50.241Z,10.50
2023-03-20T17:10:16.854Z,10.40
2023-03-20T17:12:47.919Z,11.30
2023-03-20T17:15:15.800Z,10.30
2023-03-20T17:17:42.725Z,10.30
2023-03-20T17:20:25.549Z,11.30
2023-03-20T17:22:52.517Z,10.30
2023-03-20T17:25:19.495Z,10.30
2023-03-20T17:27:46.696Z,13.30
2023-03-20T17:30:16.257Z,10.20
2023-03-20T17:32:42.859Z,10.10
2023-03-20T17:35:09.508Z,11.30
2023-03-20T17:37:36.341Z,10.10
2023-03-20T17:40:03.425Z,10.10
2023-03-20T17:42:31.489Z,10.00
2023-03-20T17:44:59.094Z,10.00
2023-03-20T17:47:26.934Z,9.90
2023-03-20T17:49:54.592Z,11.60
2023-03-20T17:52:25.379Z,11.10
2023-03-20T17:54:52.016Z,9.70
2023-03-20T17:57:21.882Z,9.70
2023-03-20T17:59:49.917Z,9.60
2023-03-20T18:02:19.549Z,12.30
2023-03-20T18:04:46.558Z,10.20
2023-03-20T18:07:13.886Z,10.10
2023-03-20T18:09:41.194Z,9.50
2023-03-20T18:12:15.052Z,9.50
2023-03-20T18:14:42.266Z,9.40
2023-03-20T18:17:11.332Z,9.50
2023-03-20T18:19:38.102Z,9.50
2023-03-20T18:22:05.223Z,9.50
2023-03-20T18:24:31.899Z,12.00
2023-03-20T18:26:59.603Z,9.50
2023-03-20T18:29:26.477Z,9.50
2023-03-20T18:31:53.114Z,12.60
2023-03-20T18:34:19.852Z,9.50
2023-03-20T18:36:46.563Z,9.50
2023-03-20T18:39:17.530Z,11.00
2023-03-20T18:41:44.582Z,9.50
2023-03-20T18:44:11.300Z,9.50
2023-03-20T18:46:37.994Z,9.60
2023-03-20T18:49:04.866Z,9.60
2023-03-20T18:51:31.531Z,9.60
2023-03-20T18:53:58.232Z,9.60
2023-03-20T18:56:25.647Z,11.80
2023-03-20T18:58:52.713Z,9.70
2023-03-20T19:01:20.280Z,9.60
2023-03-20T19:03:47.886Z,11.10
2023-03-20T19:06:19.172Z,12.40
2023-03-20T19:08:46.252Z,9.60
2023-03-20T19:11:17.897Z,9.60
2023-03-20T19:13:48.887Z,11.90
2023-03-20T19:16:43.755Z,9.60
2023-03-20T19:19:13.720Z,9.50
2023-03-20T19:21:40.463Z,9.50
2023-03-20T19:24:07.853Z,9.50
2023-03-20T19:26:35.960Z,9.50
2023-03-20T19:29:08.320Z,9.50
2023-03-20T19:31:35.853Z,9.50
2023-03-20T19:34:03.168Z,9.40
2023-03-20T19:36:30.861Z,9.40
2023-03-20T19:38:58.310Z,9.50
2023-03-20T19:41:25.374Z,9.50
2023-03-20T19:43:54.020Z,9.40
2023-03-20T19:46:39.329Z,9.40
2023-03-20T19:49:18.569Z,9.50
2023-03-20T19:51:46.087Z,11.40
2023-03-20T19:54:15.318Z,11.60
2023-03-20T19:56:42.001Z,9.50
2023-03-20T19:59:08.631Z,10.50
2023-03-20T20:01:37.574Z,9.50
2023-03-20T20:04:04.274Z,11.00
2023-03-20T20:06:32.964Z,9.40
2023-03-20T20:09:01.174Z,11.30
2023-03-20T20:11:28.130Z,9.40
2023-03-20T20:14:06.666Z,9.30
2023-03-20T20:16:39.380Z,9.90
2023-03-20T20:19:08.504Z,9.30
2023-03-20T20:24:22.162Z,10.90
2023-03-20T20:26:54.833Z,9.30
2023-03-20T20:29:25.030Z,6.70
2023-03-20T20:31:51.769Z,9.30
2023-03-20T20:37:56.429Z,9.30
2023-03-20T20:39:52.980Z,9.30
2023-03-20T20:42:20.521Z,10.80
2023-03-20T20:44:47.216Z,12.40
2023-03-20T20:47:13.882Z,9.00
2023-03-20T20:49:40.665Z,10.20
2023-03-20T20:52:07.631Z,9.00
2023-03-20T20:54:34.655Z,9.00
2023-03-20T20:57:01.686Z,8.90
2023-03-20T20:59:28.502Z,8.90
2023-03-20T21:01:55.436Z,8.90
2023-03-20T21:04:22.121Z,8.90
2023-03-20T21:07:10.017Z,11.20
2023-03-20T21:09:35.367Z,9.00
2023-03-20T21:12:03.964Z,9.00
2023-03-20T21:14:30.864Z,10.00
2023-03-20T21:17:00.829Z,8.90
2023-03-20T21:19:31.001Z,8.90
2023-03-20T21:21:57.548Z,8.90
2023-03-20T21:24:32.331Z,10.10
2023-03-20T21:27:00.436Z,8.90
2023-03-20T21:29:27.170Z,9.00
2023-03-20T21:31:53.935Z,9.00
2023-03-20T21:34:20.986Z,9.00
2023-03-20T21:36:49.278Z,11.40
2023-03-20T21:39:16.955Z,8.90
2023-03-20T21:41:43.667Z,8.90
2023-03-20T21:44:16.634Z,8.90
2023-03-20T21:47:29.226Z,8.90
2023-03-20T21:50:28.838Z,8.90
2023-03-20T21:56:09.414Z,8.90
2023-03-20T22:03:54.999Z,8.80
2023-03-20T22:07:13.074Z,9.00
2023-03-20T22:15:20.148Z,8.50
2023-03-20T22:17:56.070Z,11.30
2023-03-20T22:34:45.979Z,8.60
2023-03-20T22:45:10.782Z,10.30
2023-03-20T22:47:37.734Z,8.40
2023-03-20T22:50:04.525Z,8.50
2023-03-20T22:52:47.720Z,8.40
2023-03-20T22:55:16.703Z,8.40
2023-03-20T22:57:52.997Z,8.40
2023-03-20T23:00:30.192Z,8.40
2023-03-20T23:03:06.692Z,8.40
2023-03-20T23:05:38.420Z,8.40
2023-03-20T23:08:06.060Z,8.30
2023-03-20T23:10:32.933Z,8.40
2023-03-20T23:12:59.807Z,8.50
2023-03-20T23:15:26.479Z,8.50
2023-03-20T23:17:53.158Z,8.50
2023-03-20T23:20:21.740Z,8.50
2023-03-20T23:22:48.360Z,9.90
2023-03-20T23:25:23.918Z,8.40
2023-03-20T23:27:58.908Z,8.50
2023-03-20T23:30:33.998Z,8.50
2023-03-20T23:33:00.864Z,8.50
2023-03-20T23:35:27.529Z,8.40
2023-03-20T23:37:54.268Z,8.50
2023-03-20T23:40:20.966Z,9.60
2023-03-20T23:42:47.606Z,8.40
2023-03-20T23:45:20.649Z,8.40
2023-03-20T23:47:48.242Z,8.40
2023-03-20T23:50:26.358Z,8.40
2023-03-20T23:53:03.614Z,8.40
2023-03-20T23:55:35.475Z,9.90
2023-03-20T23:58:02.499Z,8.40
